Triathlon — D5JI6 — position and weather

sailwx.info

Track history (hours):
 
Tides and Currents Weather Stations Pressure Air Temp Water Temp Dewpoint Dewpoint Depression Visibility Wind Speed Wind Dir Waves Ship Positions

Triathlon

Last reported at 2018-Apr-23 17:17 UTC. Time now 2018-Apr-23 21:28 UTC.
Position N 51°54' E 003°25'.

Length 275 m; draft 15.8 m.

Type: Tanker. MMSI: 636017110.

Date/timePositionNaut miles runAvg speedWind from/ knotsBaromVisibWave heightAir tempDewpointWater temp
2018-Apr-23 17:17N 51°54' E 003°25'0 0.4
2018-Apr-23 16:59N 51°54' E 003°25'0 0.2
2018-Apr-23 16:29N 51°54' E 003°25'0 0.1
2018-Apr-23 15:53N 51°54' E 003°25'0 0.0
2018-Apr-23 15:29N 51°54' E 003°25'0 0.0
2018-Apr-23 14:59N 51°54' E 003°25'0 0.0
2018-Apr-23 14:29N 51°54' E 003°25'0 0.0
2018-Apr-23 13:20N 51°54' E 003°25'0 0.2
2018-Apr-23 12:56N 51°54' E 003°25'0 0.2
2018-Apr-23 12:23N 51°54' E 003°25'0 0.4
2018-Apr-23 11:59N 51°54' E 003°25'0 0.3
2018-Apr-23 11:26N 51°54' E 003°25'0 0.1
2018-Apr-23 10:59N 51°54' E 003°25'0 0.0
2018-Apr-23 09:29N 51°54' E 003°25'0 0.0
2018-Apr-23 08:02N 51°54' E 003°25'0 0.0
2018-Apr-23 07:53N 51°54' E 003°25'0 0.0
2018-Apr-23 06:05N 51°54' E 003°25'0 0.0
2018-Apr-23 04:59N 51°54' E 003°25'0 0.3
2018-Apr-23 04:26N 51°54' E 003°25'0 0.2
2018-Apr-23 03:59N 51°54' E 003°25'0 0.3
2018-Apr-23 03:30N 51°54' E 003°25'3 5.7
2018-Apr-23 03:00N 51°54' E 003°20'510.3
2018-Apr-23 02:30N 51°54' E 003°12'4 7.5
2018-Apr-23 02:00N 51°52' E 003°06'3 4.9
2018-Apr-23 01:29N 51°51' E 003°03'510.9
2018-Apr-23 00:59N 51°50' E 002°54'711.0
2018-Apr-23 00:19N 51°47' E 002°43'411.2
2018-Apr-23 00:00N 51°45' E 002°38'611.1
2018-Apr-22 23:30N 51°42' E 002°31'611.5
2018-Apr-22 23:01N 51°38' E 002°25'611.9
2018-Apr-22 22:30N 51°33' E 002°18'612.3
2018-Apr-22 22:00N 51°29' E 002°12'712.4
2018-Apr-22 21:29N 51°24' E 002°05'612.6
2018-Apr-22 21:00N 51°20' E 001°58'713.0
2018-Apr-22 20:30N 51°15' E 001°51'713.3
2018-Apr-22 20:00N 51°10' E 001°44'713.5
2018-Apr-22 19:31N 51°04' E 001°39'714.3
2018-Apr-22 19:00N 50°58' E 001°32'714.5
2018-Apr-22 18:30N 50°52' E 001°26'713.6
2018-Apr-22 18:00N 50°45' E 001°24'713.2
2018-Apr-22 17:29N 50°40' E 001°18'613.2
2018-Apr-22 17:00N 50°36' E 001°10'713.1
2018-Apr-22 16:30N 50°32' E 001°02'612.9
2018-Apr-22 16:00N 50°29' E 000°53'712.9
2018-Apr-22 15:30N 50°26' E 000°43'713.1
2018-Apr-22 14:59N 50°24' E 000°33'613.5
2018-Apr-22 14:30N 50°22' E 000°24'713.7
2018-Apr-22 14:00N 50°20' E 000°13'714.0
2018-Apr-22 13:30N 50°17' E 000°03'714.2
2018-Apr-22 13:00N 50°15' W 000°07'714.3
2018-Apr-22 12:30N 50°12' W 000°18'714.3
2018-Apr-22 12:00N 50°09' W 000°28'714.1
2018-Apr-22 11:30N 50°06' W 000°38'713.9
2018-Apr-22 11:00N 50°03' W 000°48'713.6
2018-Apr-22 10:30N 50°01' W 000°58'713.1
2018-Apr-22 10:00N 49°58' W 001°07'612.6
2018-Apr-22 09:30N 49°56' W 001°16'612.1
2018-Apr-22 09:00N 49°54' W 001°25'611.3
2018-Apr-22 08:30N 49°51' W 001°33'5 9.6
2018-Apr-22 08:01N 49°48' W 001°38'3 6.4
2018-Apr-22 07:30N 49°49' W 001°43'5 9.8
2018-Apr-22 07:00N 49°51' W 001°50'5 9.5
2018-Apr-22 06:30N 49°53' W 001°56'4 8.5
2018-Apr-22 06:00N 49°56' W 002°02'2 4.3
2018-Apr-22 05:31N 49°55' W 002°05'2 4.6
2018-Apr-22 05:01N 49°55' W 002°08'510.0
2018-Apr-22 04:30N 49°54' W 002°16'510.7
2018-Apr-22 04:00N 49°52' W 002°24'611.3
2018-Apr-22 03:29N 49°51' W 002°33'611.7
2018-Apr-22 03:01N 49°50' W 002°41'612.1
2018-Apr-22 02:30N 49°49' W 002°51'1012.5
2018-Apr-22 01:43N 49°45' W 003°05'312.6
2018-Apr-22 01:30N 49°44' W 003°08'612.6
2018-Apr-22 01:00N 49°41' W 003°18'612.7
2018-Apr-22 00:30N 49°39' W 003°26'612.7
2018-Apr-22 00:00N 49°36' W 003°35'1012.8
2018-Apr-21 23:13N 49°32' W 003°49'313.0
2018-Apr-21 23:00N 49°30' W 003°53'713.1
2018-Apr-21 22:28N 49°26' W 004°02'613.3
2018-Apr-21 22:01N 49°23' W 004°10'713.4
2018-Apr-21 21:30N 49°20' W 004°19'713.6
2018-Apr-21 21:00N 49°16' W 004°28'713.7
2018-Apr-21 20:30N 49°12' W 004°37'713.7
2018-Apr-21 20:00N 49°09' W 004°45'1213.7
2018-Apr-21 19:06N 49°02' W 005°01'413.7
2018-Apr-21 18:50N 48°60' W 005°06'513.4
2018-Apr-21 18:29N 48°58' W 005°12'713.2
2018-Apr-21 17:59N 48°54' W 005°21'712.8
2018-Apr-21 17:27N 48°51' W 005°29'612.6
2018-Apr-21 17:00N 48°47' W 005°37'711.3
2018-Apr-21 16:21N 48°41' W 005°43'5 9.4
2018-Apr-21 15:48N 48°37' W 005°46'33 9.2
2018-Apr-21 12:10N 48°07' W 006°10'56511.3
2018-Apr-19 10:19N 39°26' W 011°11'411.7
2018-Apr-19 10:00N 39°23' W 011°13'1911.4
2018-Apr-19 08:21N 39°05' W 011°19'511.6
2018-Apr-19 07:57N 39°00' W 011°21'611.7
2018-Apr-19 07:26N 38°54' W 011°23'14611.9
2018-Apr-18 19:11N 36°33' W 012°11'211.7
2018-Apr-18 19:00N 36°31' W 012°12'13511.5
2018-Apr-18 07:13N 34°20' W 012°54'9211.7
2018-Apr-17 23:20N 32°52' W 013°24'411.6
2018-Apr-17 23:00N 32°48' W 013°25'611.5
2018-Apr-17 22:29N 32°42' W 013°27'611.8
2018-Apr-17 21:59N 32°36' W 013°29'611.7
2018-Apr-17 21:31N 32°31' W 013°31'23012.0
2018-Apr-17 02:17N 28°49' W 014°41'311.1
2018-Apr-17 02:00N 28°46' W 014°42'711.2
2018-Apr-17 01:22N 28°39' W 014°44'411.3
2018-Apr-17 01:00N 28°35' W 014°45'611.3
2018-Apr-17 00:29N 28°29' W 014°46'511.1
2018-Apr-17 00:00N 28°24' W 014°48'511.0
2018-Apr-16 23:30N 28°19' W 014°50'612.1
2018-Apr-16 23:00N 28°13' W 014°52'611.5
2018-Apr-16 22:30N 28°07' W 014°54'611.4
2018-Apr-16 22:00N 28°02' W 014°56'611.2
2018-Apr-16 21:30N 27°57' W 014°59'611.5
2018-Apr-16 21:00N 27°52' W 015°01'611.4
2018-Apr-16 20:30N 27°46' W 015°04'611.6
2018-Apr-16 20:00N 27°41' W 015°06'  
Track history (hours):
 
Tides and Currents Weather Stations Pressure Air Temp Water Temp Dewpoint Dewpoint Depression Visibility Wind Speed Wind Dir Waves Ship Positions

Triathlon

Last reported at 2018-Apr-23 17:17 UTC. Time now 2018-Apr-23 21:28 UTC.
Position N 51°54' E 003°25'.

Length 275 m; draft 15.8 m.

Type: Tanker. MMSI: 636017110.

Date/timePositionNaut miles runAvg speedWind from/ knotsBaromVisibWave heightAir tempDewpointWater temp
2018-Apr-23 17:17N 51°54' E 003°25'0 0.4
2018-Apr-23 16:59N 51°54' E 003°25'0 0.2
2018-Apr-23 16:29N 51°54' E 003°25'0 0.1
2018-Apr-23 15:53N 51°54' E 003°25'0 0.0
2018-Apr-23 15:29N 51°54' E 003°25'0 0.0
2018-Apr-23 14:59N 51°54' E 003°25'0 0.0
2018-Apr-23 14:29N 51°54' E 003°25'0 0.0
2018-Apr-23 13:20N 51°54' E 003°25'0 0.2
2018-Apr-23 12:56N 51°54' E 003°25'0 0.2
2018-Apr-23 12:23N 51°54' E 003°25'0 0.4
2018-Apr-23 11:59N 51°54' E 003°25'0 0.3
2018-Apr-23 11:26N 51°54' E 003°25'0 0.1
2018-Apr-23 10:59N 51°54' E 003°25'0 0.0
2018-Apr-23 09:29N 51°54' E 003°25'0 0.0
2018-Apr-23 08:02N 51°54' E 003°25'0 0.0
2018-Apr-23 07:53N 51°54' E 003°25'0 0.0
2018-Apr-23 06:05N 51°54' E 003°25'0 0.0
2018-Apr-23 04:59N 51°54' E 003°25'0 0.3
2018-Apr-23 04:26N 51°54' E 003°25'0 0.2
2018-Apr-23 03:59N 51°54' E 003°25'0 0.3
2018-Apr-23 03:30N 51°54' E 003°25'3 5.7
2018-Apr-23 03:00N 51°54' E 003°20'510.3
2018-Apr-23 02:30N 51°54' E 003°12'4 7.5
2018-Apr-23 02:00N 51°52' E 003°06'3 4.9
2018-Apr-23 01:29N 51°51' E 003°03'510.9
2018-Apr-23 00:59N 51°50' E 002°54'711.0
2018-Apr-23 00:19N 51°47' E 002°43'411.2
2018-Apr-23 00:00N 51°45' E 002°38'611.1
2018-Apr-22 23:30N 51°42' E 002°31'611.5
2018-Apr-22 23:01N 51°38' E 002°25'611.9
2018-Apr-22 22:30N 51°33' E 002°18'612.3
2018-Apr-22 22:00N 51°29' E 002°12'712.4
2018-Apr-22 21:29N 51°24' E 002°05'612.6
2018-Apr-22 21:00N 51°20' E 001°58'713.0
2018-Apr-22 20:30N 51°15' E 001°51'713.3
2018-Apr-22 20:00N 51°10' E 001°44'713.5
2018-Apr-22 19:31N 51°04' E 001°39'714.3
2018-Apr-22 19:00N 50°58' E 001°32'714.5
2018-Apr-22 18:30N 50°52' E 001°26'713.6
2018-Apr-22 18:00N 50°45' E 001°24'713.2
2018-Apr-22 17:29N 50°40' E 001°18'613.2
2018-Apr-22 17:00N 50°36' E 001°10'713.1
2018-Apr-22 16:30N 50°32' E 001°02'612.9
2018-Apr-22 16:00N 50°29' E 000°53'712.9
2018-Apr-22 15:30N 50°26' E 000°43'713.1
2018-Apr-22 14:59N 50°24' E 000°33'613.5
2018-Apr-22 14:30N 50°22' E 000°24'713.7
2018-Apr-22 14:00N 50°20' E 000°13'714.0
2018-Apr-22 13:30N 50°17' E 000°03'714.2
2018-Apr-22 13:00N 50°15' W 000°07'714.3
2018-Apr-22 12:30N 50°12' W 000°18'714.3
2018-Apr-22 12:00N 50°09' W 000°28'714.1
2018-Apr-22 11:30N 50°06' W 000°38'713.9
2018-Apr-22 11:00N 50°03' W 000°48'713.6
2018-Apr-22 10:30N 50°01' W 000°58'713.1
2018-Apr-22 10:00N 49°58' W 001°07'612.6
2018-Apr-22 09:30N 49°56' W 001°16'612.1
2018-Apr-22 09:00N 49°54' W 001°25'611.3
2018-Apr-22 08:30N 49°51' W 001°33'5 9.6
2018-Apr-22 08:01N 49°48' W 001°38'3 6.4
2018-Apr-22 07:30N 49°49' W 001°43'5 9.8
2018-Apr-22 07:00N 49°51' W 001°50'5 9.5
2018-Apr-22 06:30N 49°53' W 001°56'4 8.5
2018-Apr-22 06:00N 49°56' W 002°02'2 4.3
2018-Apr-22 05:31N 49°55' W 002°05'2 4.6
2018-Apr-22 05:01N 49°55' W 002°08'510.0
2018-Apr-22 04:30N 49°54' W 002°16'510.7
2018-Apr-22 04:00N 49°52' W 002°24'611.3
2018-Apr-22 03:29N 49°51' W 002°33'611.7
2018-Apr-22 03:01N 49°50' W 002°41'612.1
2018-Apr-22 02:30N 49°49' W 002°51'1012.5
2018-Apr-22 01:43N 49°45' W 003°05'312.6
2018-Apr-22 01:30N 49°44' W 003°08'612.6
2018-Apr-22 01:00N 49°41' W 003°18'612.7
2018-Apr-22 00:30N 49°39' W 003°26'612.7
2018-Apr-22 00:00N 49°36' W 003°35'1012.8
2018-Apr-21 23:13N 49°32' W 003°49'313.0
2018-Apr-21 23:00N 49°30' W 003°53'713.1
2018-Apr-21 22:28N 49°26' W 004°02'613.3
2018-Apr-21 22:01N 49°23' W 004°10'713.4
2018-Apr-21 21:30N 49°20' W 004°19'713.6
2018-Apr-21 21:00N 49°16' W 004°28'713.7
2018-Apr-21 20:30N 49°12' W 004°37'713.7
2018-Apr-21 20:00N 49°09' W 004°45'1213.7
2018-Apr-21 19:06N 49°02' W 005°01'413.7
2018-Apr-21 18:50N 48°60' W 005°06'513.4
2018-Apr-21 18:29N 48°58' W 005°12'713.2
2018-Apr-21 17:59N 48°54' W 005°21'712.8
2018-Apr-21 17:27N 48°51' W 005°29'612.6
2018-Apr-21 17:00N 48°47' W 005°37'711.3
2018-Apr-21 16:21N 48°41' W 005°43'5 9.4
2018-Apr-21 15:48N 48°37' W 005°46'33 9.2
2018-Apr-21 12:10N 48°07' W 006°10'56511.3
2018-Apr-19 10:19N 39°26' W 011°11'411.7
2018-Apr-19 10:00N 39°23' W 011°13'1911.4
2018-Apr-19 08:21N 39°05' W 011°19'511.6
2018-Apr-19 07:57N 39°00' W 011°21'611.7
2018-Apr-19 07:26N 38°54' W 011°23'14611.9
2018-Apr-18 19:11N 36°33' W 012°11'211.7
2018-Apr-18 19:00N 36°31' W 012°12'13511.5
2018-Apr-18 07:13N 34°20' W 012°54'9211.7
2018-Apr-17 23:20N 32°52' W 013°24'411.6
2018-Apr-17 23:00N 32°48' W 013°25'611.5
2018-Apr-17 22:29N 32°42' W 013°27'611.8
2018-Apr-17 21:59N 32°36' W 013°29'611.7
2018-Apr-17 21:31N 32°31' W 013°31'23012.0
2018-Apr-17 02:17N 28°49' W 014°41'311.1
2018-Apr-17 02:00N 28°46' W 014°42'711.2
2018-Apr-17 01:22N 28°39' W 014°44'411.3
2018-Apr-17 01:00N 28°35' W 014°45'611.3
2018-Apr-17 00:29N 28°29' W 014°46'511.1
2018-Apr-17 00:00N 28°24' W 014°48'511.0
2018-Apr-16 23:30N 28°19' W 014°50'612.1
2018-Apr-16 23:00N 28°13' W 014°52'611.5
2018-Apr-16 22:30N 28°07' W 014°54'611.4
2018-Apr-16 22:00N 28°02' W 014°56'611.2
2018-Apr-16 21:30N 27°57' W 014°59'611.5
2018-Apr-16 21:00N 27°52' W 015°01'611.4
2018-Apr-16 20:30N 27°46' W 015°04'611.6
2018-Apr-16 20:00N 27°41' W 015°06'  

Dump ship's entire track history